Brak ostrzeżeń pogodowych   -   Brak ostrzeżeń pogodowych

Raporty Pogodowe z Lotnisk

 

EPKK - Krakow/Balice, Poland
Odległość od stacji: Zd 81km
Aktualizacja: 13/06/2021 23:00
Bezchmurnie
Bezchmurnie
 Wiatr z Zd
Wiatr: Zd 20 km/h
Temperatura: 13°C
Punkt Rosy: 8°C
Wilgotność Względna: 72%
Ciśnienie Względne: 1022 hPa
Podsumowanie: Bezchmurnie
Widoczność: większa niż 10 km
2021/06/13 21:00 EPKK 132100Z 27011KT CAVOK 13/08 Q1022
EPRZ - Rzeszow/Jasionka, Poland
Odległość od stacji: Ws 81km
Aktualizacja: 13/06/2021 23:00
Bezchmurnie
Bezchmurnie
 Wiatr z Zd
Wiatr: Zd 20 km/h
Temperatura: 11°C
Punkt Rosy: 10°C
Wilgotność Względna: 94%
Ciśnienie Względne: 1019 hPa
Podsumowanie: Bezchmurnie
Widoczność: większa niż 10 km
2021/06/13 21:00 EPRZ 132100Z 28011KT CAVOK 11/10 Q1019
 
EPKT - Katowice/Pyrzowice, Poland
Odległość od stacji: ZdPnZd 141km
Aktualizacja: 13/06/2021 23:00
Bezchmurnie
Bezchmurnie
 Wiatr z Zd
Wiatr: Zd 13 km/h
Temperatura: 9°C
Temperatura Odczuwalna: 7°C
Punkt Rosy: 7°C
Wilgotność Względna: 87%
Ciśnienie Względne: 1023 hPa
Podsumowanie: Bezchmurnie
Widoczność: większa niż 10 km
2021/06/13 21:00 EPKT 132100Z 28007KT CAVOK 09/07 Q1023
EPWA - Warsaw/Okecie, Poland
Odległość od stacji: Pn 240km
Aktualizacja: 13/06/2021 23:00
Bezchmurnie
Bezchmurnie
 Wiatr z PnZd
Wiatr: PnZd 13 km/h
Temperatura: 13°C
Punkt Rosy: 9°C
Wilgotność Względna: 77%
Ciśnienie Względne: 1020 hPa
Podsumowanie: Bezchmurnie
Widoczność: większa niż 10 km
2021/06/13 21:00 EPWA 132100Z 31007KT CAVOK 13/09 Q1020 NOSIG
 
EPLL - Lodz/Lublinek, Poland
Odległość od stacji: PnPnZd 218km
Aktualizacja: 13/06/2021 23:00
Bezchmurnie
Bezchmurnie
 Wiatr z Zd
Wiatr: Zd 13 km/h
Temperatura: 14°C
Punkt Rosy: 7°C
Wilgotność Względna: 63%
Ciśnienie Względne: 1022 hPa
Podsumowanie: Bezchmurnie
Widoczność: większa niż 10 km
2021/06/13 21:00 EPLL 132100Z 27007KT CAVOK 14/07 Q1022
EPWR - Wroclaw/Strachowice, Poland
Odległość od stacji: ZdPnZd 311km
Aktualizacja: 13/06/2021 23:00
Bezchmurnie
Bezchmurnie
 Wiatr z ZdPnZd
Wiatr: ZdPnZd 13 km/h
Temperatura: 9°C
Temperatura Odczuwalna: 7°C
Punkt Rosy: 8°C
Wilgotność Względna: 94%
Ciśnienie Względne: 1024 hPa
Podsumowanie: Bezchmurnie
Widoczność: większa niż 10 km
2021/06/13 21:00 EPWR 132100Z 29007KT CAVOK 09/08 Q1024
 
EPGD - Gdansk/Rebiechowo, Poland
Odległość od stacji: PnZd 553km
Aktualizacja: 13/06/2021 23:00
Bezchmurnie
Bezchmurnie
 Wiatr z Zd
Wiatr: Zd 11 km/h
Temperatura: 12°C
Punkt Rosy: 9°C
Wilgotność Względna: 82%
Ciśnienie Względne: 1021 hPa
Podsumowanie: Bezchmurnie
Widoczność: większa niż 10 km
2021/06/13 21:00 EPGD 132100Z 27006KT CAVOK 12/09 Q1021
EPSC - Szczecin/Goleniow, Poland
Odległość od stacji: ZdPnZd 635km
Aktualizacja: 13/06/2021 23:00
Bezchmurnie
Bezchmurnie
 Wiatr z varies
Wiatr: varies 4 km/h
Temperatura: 10°C
Punkt Rosy: 8°C
Wilgotność Względna: 88%
Ciśnienie Względne: 1023 hPa
Podsumowanie: Bezchmurnie
Widoczność: większa niż 10 km
2021/06/13 21:00 EPSC 132100Z VRB02KT CAVOK 10/08 Q1023